sensor_id;sensor_type;location;lat;lon;timestamp;pressure;altitude;pressure_sealevel;temperature;humidity
9855;BME280;4966;48.112;9.282;2023-04-23T00:02:31;94127.81;;;13.09;73.66
9855;BME280;4966;48.112;9.282;2023-04-23T00:05:05;94134.50;;;13.12;73.35
9855;BME280;4966;48.112;9.282;2023-04-23T00:07:34;94137.50;;;13.03;73.80
9855;BME280;4966;48.112;9.282;2023-04-23T00:10:01;94136.97;;;12.94;74.28
9855;BME280;4966;48.112;9.282;2023-04-23T00:12:32;94139.72;;;12.97;73.36
9855;BME280;4966;48.112;9.282;2023-04-23T00:14:59;94145.81;;;13.10;72.33
9855;BME280;4966;48.112;9.282;2023-04-23T00:17:25;94144.22;;;13.09;72.71
9855;BME280;4966;48.112;9.282;2023-04-23T00:19:51;94147.25;;;13.04;73.22
9855;BME280;4966;48.112;9.282;2023-04-23T00:22:19;94145.63;;;12.99;73.40
9855;BME280;4966;48.112;9.282;2023-04-23T00:24:46;94149.75;;;13.13;72.67
9855;BME280;4966;48.112;9.282;2023-04-23T00:27:15;94154.13;;;12.94;73.63
9855;BME280;4966;48.112;9.282;2023-04-23T00:29:42;94154.31;;;12.82;74.37
9855;BME280;4966;48.112;9.282;2023-04-23T00:32:09;94158.34;;;12.88;74.38
9855;BME280;4966;48.112;9.282;2023-04-23T00:34:35;94154.78;;;12.88;74.58
9855;BME280;4966;48.112;9.282;2023-04-23T00:37:04;94154.56;;;12.96;73.98
9855;BME280;4966;48.112;9.282;2023-04-23T00:39:35;94156.13;;;12.97;74.05
9855;BME280;4966;48.112;9.282;2023-04-23T00:42:05;94154.44;;;12.89;74.34
9855;BME280;4966;48.112;9.282;2023-04-23T00:44:37;94154.38;;;12.86;74.30
9855;BME280;4966;48.112;9.282;2023-04-23T00:47:12;94156.06;;;12.94;73.96
9855;BME280;4966;48.112;9.282;2023-04-23T00:49:41;94159.03;;;12.85;74.54
9855;BME280;4966;48.112;9.282;2023-04-23T00:52:07;94163.94;;;12.99;74.19
9855;BME280;4966;48.112;9.282;2023-04-23T00:54:32;94158.81;;;12.71;75.62
9855;BME280;4966;48.112;9.282;2023-04-23T00:56:58;94159.03;;;12.85;75.09
9855;BME280;4966;48.112;9.282;2023-04-23T00:59:25;94161.00;;;12.85;75.12
9855;BME280;4966;48.112;9.282;2023-04-23T01:01:51;94160.38;;;12.95;74.70
9855;BME280;4966;48.112;9.282;2023-04-23T01:04:18;94157.72;;;12.98;74.59
9855;BME280;4966;48.112;9.282;2023-04-23T01:06:47;94158.72;;;13.13;74.28
9855;BME280;4966;48.112;9.282;2023-04-23T01:09:16;94160.97;;;13.08;74.85
9855;BME280;4966;48.112;9.282;2023-04-23T01:11:48;94160.97;;;13.08;74.93
9855;BME280;4966;48.112;9.282;2023-04-23T01:14:16;94157.50;;;13.11;74.28
9855;BME280;4966;48.112;9.282;2023-04-23T01:16:41;94164.09;;;13.33;73.19
9855;BME280;4966;48.112;9.282;2023-04-23T01:19:08;94160.59;;;13.09;74.32
9855;BME280;4966;48.112;9.282;2023-04-23T01:21:36;94169.63;;;13.13;74.56
9855;BME280;4966;48.112;9.282;2023-04-23T01:24:10;94165.59;;;13.04;74.79
9855;BME280;4966;48.112;9.282;2023-04-23T01:26:37;94162.13;;;13.07;74.53
9855;BME280;4966;48.112;9.282;2023-04-23T01:29:10;94160.75;;;12.93;74.95
9855;BME280;4966;48.112;9.282;2023-04-23T01:31:37;94166.69;;;12.99;75.01
9855;BME280;4966;48.112;9.282;2023-04-23T01:34:06;94166.44;;;13.08;74.94
9855;BME280;4966;48.112;9.282;2023-04-23T01:36:33;94165.66;;;13.07;74.99
9855;BME280;4966;48.112;9.282;2023-04-23T01:38:59;94161.44;;;13.13;74.91
9855;BME280;4966;48.112;9.282;2023-04-23T01:41:28;94158.59;;;13.06;75.21
9855;BME280;4966;48.112;9.282;2023-04-23T01:43:56;94164.63;;;12.92;75.76
9855;BME280;4966;48.112;9.282;2023-04-23T01:46:22;94164.72;;;12.99;76.06
9855;BME280;4966;48.112;9.282;2023-04-23T01:48:51;94155.50;;;13.08;75.96
9855;BME280;4966;48.112;9.282;2023-04-23T01:51:23;94163.31;;;13.09;75.38
9855;BME280;4966;48.112;9.282;2023-04-23T01:53:50;94158.13;;;13.01;75.67
9855;BME280;4966;48.112;9.282;2023-04-23T01:56:18;94151.59;;;12.82;76.83
9855;BME280;4966;48.112;9.282;2023-04-23T01:58:46;94159.00;;;12.82;77.10
9855;BME280;4966;48.112;9.282;2023-04-23T02:01:12;94158.13;;;12.77;78.01
9855;BME280;4966;48.112;9.282;2023-04-23T02:03:38;94155.88;;;12.83;78.39
9855;BME280;4966;48.112;9.282;2023-04-23T02:06:17;94161.22;;;12.76;78.72
9855;BME280;4966;48.112;9.282;2023-04-23T02:08:45;94155.06;;;12.79;79.56
9855;BME280;4966;48.112;9.282;2023-04-23T02:11:11;94157.78;;;12.79;80.15
9855;BME280;4966;48.112;9.282;2023-04-23T02:13:37;94166.03;;;12.83;80.22
9855;BME280;4966;48.112;9.282;2023-04-23T02:16:09;94167.06;;;12.74;80.44
9855;BME280;4966;48.112;9.282;2023-04-23T02:18:41;94164.06;;;12.83;81.09
9855;BME280;4966;48.112;9.282;2023-04-23T02:21:08;94163.38;;;12.86;81.40
9855;BME280;4966;48.112;9.282;2023-04-23T02:23:36;94162.84;;;13.04;79.99
9855;BME280;4966;48.112;9.282;2023-04-23T02:26:03;94162.63;;;12.89;80.49
9855;BME280;4966;48.112;9.282;2023-04-23T02:28:29;94158.44;;;12.95;80.15
9855;BME280;4966;48.112;9.282;2023-04-23T02:30:56;94171.25;;;12.91;80.64
9855;BME280;4966;48.112;9.282;2023-04-23T02:33:24;94167.22;;;12.85;81.12
9855;BME280;4966;48.112;9.282;2023-04-23T02:35:51;94172.38;;;12.90;80.87
9855;BME280;4966;48.112;9.282;2023-04-23T02:38:17;94180.50;;;12.64;82.25
9855;BME280;4966;48.112;9.282;2023-04-23T02:40:46;94184.19;;;12.52;83.23
9855;BME280;4966;48.112;9.282;2023-04-23T02:43:12;94182.53;;;12.47;84.00
9855;BME280;4966;48.112;9.282;2023-04-23T02:45:43;94186.13;;;12.51;83.85
9855;BME280;4966;48.112;9.282;2023-04-23T02:48:12;94189.25;;;12.50;84.29
9855;BME280;4966;48.112;9.282;2023-04-23T02:50:37;94194.16;;;12.64;84.10
9855;BME280;4966;48.112;9.282;2023-04-23T02:53:04;94197.38;;;12.69;84.09
9855;BME280;4966;48.112;9.282;2023-04-23T02:55:30;94197.47;;;12.53;84.15
9855;BME280;4966;48.112;9.282;2023-04-23T02:57:59;94205.47;;;12.43;85.10
9855;BME280;4966;48.112;9.282;2023-04-23T03:00:27;94189.72;;;12.55;84.64
9855;BME280;4966;48.112;9.282;2023-04-23T03:02:56;94186.78;;;12.64;83.94
9855;BME280;4966;48.112;9.282;2023-04-23T03:05:27;94194.03;;;12.56;84.61
9855;BME280;4966;48.112;9.282;2023-04-23T03:07:59;94180.16;;;12.65;84.13
9855;BME280;4966;48.112;9.282;2023-04-23T03:10:27;94180.59;;;12.67;84.39
9855;BME280;4966;48.112;9.282;2023-04-23T03:13:02;94181.91;;;12.54;85.00
9855;BME280;4966;48.112;9.282;2023-04-23T03:15:28;94185.84;;;12.56;84.93
9855;BME280;4966;48.112;9.282;2023-04-23T03:17:54;94189.66;;;12.52;85.12
9855;BME280;4966;48.112;9.282;2023-04-23T03:20:23;94180.06;;;12.62;84.67
9855;BME280;4966;48.112;9.282;2023-04-23T03:22:57;94189.66;;;12.52;84.90
9855;BME280;4966;48.112;9.282;2023-04-23T03:25:29;94186.88;;;12.48;85.15
9855;BME280;4966;48.112;9.282;2023-04-23T03:27:58;94183.41;;;12.51;85.17
9855;BME280;4966;48.112;9.282;2023-04-23T03:30:32;94190.47;;;12.52;85.50
9855;BME280;4966;48.112;9.282;2023-04-23T03:32:58;94189.16;;;12.46;86.08
9855;BME280;4966;48.112;9.282;2023-04-23T03:35:24;94183.34;;;12.48;86.13
9855;BME280;4966;48.112;9.282;2023-04-23T03:37:53;94184.69;;;12.58;85.82
9855;BME280;4966;48.112;9.282;2023-04-23T03:40:28;94171.75;;;12.54;85.31
9855;BME280;4966;48.112;9.282;2023-04-23T03:42:57;94172.97;;;12.34;86.49
9855;BME280;4966;48.112;9.282;2023-04-23T03:45:23;94170.66;;;12.36;86.57
9855;BME280;4966;48.112;9.282;2023-04-23T03:47:51;94174.53;;;12.35;87.26
9855;BME280;4966;48.112;9.282;2023-04-23T03:50:20;94165.28;;;12.40;86.91
9855;BME280;4966;48.112;9.282;2023-04-23T03:52:48;94178.84;;;12.36;87.33
9855;BME280;4966;48.112;9.282;2023-04-23T03:55:20;94174.97;;;12.37;87.37
9855;BME280;4966;48.112;9.282;2023-04-23T03:57:47;94176.19;;;12.40;87.37
9855;BME280;4966;48.112;9.282;2023-04-23T04:00:16;94175.47;;;12.43;87.17
9855;BME280;4966;48.112;9.282;2023-04-23T04:02:45;94184.00;;;12.41;86.40
9855;BME280;4966;48.112;9.282;2023-04-23T04:05:11;94176.19;;;12.40;86.88
9855;BME280;4966;48.112;9.282;2023-04-23T04:07:43;94186.78;;;12.45;87.13
9855;BME280;4966;48.112;9.282;2023-04-23T04:10:09;94179.69;;;12.40;86.51
9855;BME280;4966;48.112;9.282;2023-04-23T04:12:37;94186.31;;;12.39;86.89
9855;BME280;4966;48.112;9.282;2023-04-23T04:15:04;94180.97;;;12.46;86.78
9855;BME280;4966;48.112;9.282;2023-04-23T04:17:30;94183.34;;;12.48;86.79
9855;BME280;4966;48.112;9.282;2023-04-23T04:19:56;94194.78;;;12.34;87.33
9855;BME280;4966;48.112;9.282;2023-04-23T04:22:21;94186.66;;;12.57;85.83
9855;BME280;4966;48.112;9.282;2023-04-23T04:24:50;94180.63;;;12.48;86.11
9855;BME280;4966;48.112;9.282;2023-04-23T04:27:18;94182.16;;;12.45;86.41
9855;BME280;4966;48.112;9.282;2023-04-23T04:29:44;94184.47;;;12.24;87.44
9855;BME280;4966;48.112;9.282;2023-04-23T04:32:14;94187.03;;;12.36;86.70
9855;BME280;4966;48.112;9.282;2023-04-23T04:34:43;94184.19;;;12.29;86.79
9855;BME280;4966;48.112;9.282;2023-04-23T04:37:11;94188.03;;;12.28;87.28
9855;BME280;4966;48.112;9.282;2023-04-23T04:39:40;94196.06;;;12.21;88.63
9855;BME280;4966;48.112;9.282;2023-04-23T04:42:08;94188.47;;;12.30;87.96
9855;BME280;4966;48.112;9.282;2023-04-23T04:44:37;94197.72;;;12.25;87.97
9855;BME280;4966;48.112;9.282;2023-04-23T04:47:04;94193.91;;;12.30;88.27
9855;BME280;4966;48.112;9.282;2023-04-23T04:49:32;94186.47;;;12.27;88.58
9855;BME280;4966;48.112;9.282;2023-04-23T04:52:01;94182.22;;;12.29;88.72
9855;BME280;4966;48.112;9.282;2023-04-23T04:54:30;94189.16;;;12.46;87.96
9855;BME280;4966;48.112;9.282;2023-04-23T04:56:58;94185.75;;;12.30;88.22
9855;BME280;4966;48.112;9.282;2023-04-23T04:59:25;94183.53;;;12.36;87.90
9855;BME280;4966;48.112;9.282;2023-04-23T05:01:50;94187.25;;;12.27;88.17
9855;BME280;4966;48.112;9.282;2023-04-23T05:04:16;94189.78;;;12.17;88.97
9855;BME280;4966;48.112;9.282;2023-04-23T05:06:44;94186.09;;;11.89;91.36
9855;BME280;4966;48.112;9.282;2023-04-23T05:09:10;94192.81;;;12.11;89.83
9855;BME280;4966;48.112;9.282;2023-04-23T05:11:36;94188.84;;;12.09;90.24
9855;BME280;4966;48.112;9.282;2023-04-23T05:14:07;94198.03;;;12.01;90.48
9855;BME280;4966;48.112;9.282;2023-04-23T05:16:38;94193.34;;;12.01;91.03
9855;BME280;4966;48.112;9.282;2023-04-23T05:19:06;94180.09;;;12.19;89.60
9855;BME280;4966;48.112;9.282;2023-04-23T05:21:33;94177.22;;;12.31;89.39
9855;BME280;4966;48.112;9.282;2023-04-23T05:24:01;94166.59;;;12.26;89.38
9855;BME280;4966;48.112;9.282;2023-04-23T05:26:27;94182.41;;;12.40;88.99
9855;BME280;4966;48.112;9.282;2023-04-23T05:28:53;94190.13;;;12.15;90.53
9855;BME280;4966;48.112;9.282;2023-04-23T05:31:20;94190.28;;;12.22;89.34
9855;BME280;4966;48.112;9.282;2023-04-23T05:33:49;94188.75;;;12.25;89.95
9855;BME280;4966;48.112;9.282;2023-04-23T05:36:21;94188.47;;;12.30;89.64
9855;BME280;4966;48.112;9.282;2023-04-23T05:38:49;94187.16;;;12.43;88.96
9855;BME280;4966;48.112;9.282;2023-04-23T05:41:18;94197.09;;;12.12;90.15
9855;BME280;4966;48.112;9.282;2023-04-23T05:43:46;94194.50;;;12.39;88.51
9855;BME280;4966;48.112;9.282;2023-04-23T05:46:20;94193.72;;;12.62;87.54
9855;BME280;4966;48.112;9.282;2023-04-23T05:48:46;94187.59;;;12.68;87.66
9855;BME280;4966;48.112;9.282;2023-04-23T05:51:12;94190.72;;;12.47;87.87
9855;BME280;4966;48.112;9.282;2023-04-23T05:53:38;94200.16;;;12.50;87.08
9855;BME280;4966;48.112;9.282;2023-04-23T05:56:09;94196.69;;;12.53;87.69
9855;BME280;4966;48.112;9.282;2023-04-23T05:58:43;94194.50;;;12.39;88.37
9855;BME280;4966;48.112;9.282;2023-04-23T06:01:08;94189.78;;;12.59;88.12
9855;BME280;4966;48.112;9.282;2023-04-23T06:03:38;94199.78;;;12.51;88.14
9855;BME280;4966;48.112;9.282;2023-04-23T06:06:08;94199.03;;;12.31;87.60
9855;BME280;4966;48.112;9.282;2023-04-23T06:08:34;94196.31;;;12.31;87.72
9855;BME280;4966;48.112;9.282;2023-04-23T06:11:05;94189.16;;;12.46;87.72
9855;BME280;4966;48.112;9.282;2023-04-23T06:13:33;94180.59;;;12.67;86.66
9855;BME280;4966;48.112;9.282;2023-04-23T06:16:06;94182.94;;;12.46;87.58
9855;BME280;4966;48.112;9.282;2023-04-23T06:18:32;94204.69;;;12.23;88.78
9855;BME280;4966;48.112;9.282;2023-04-23T06:21:02;94196.88;;;12.21;89.29
9855;BME280;4966;48.112;9.282;2023-04-23T06:23:30;94204.16;;;12.56;87.88
9855;BME280;4966;48.112;9.282;2023-04-23T06:26:05;94179.06;;;12.70;87.33
9855;BME280;4966;48.112;9.282;2023-04-23T06:28:33;94183.72;;;12.92;86.48
9855;BME280;4966;48.112;9.282;2023-04-23T06:30:59;94181.78;;;12.70;88.46
9855;BME280;4966;48.112;9.282;2023-04-23T06:33:27;94177.16;;;12.97;87.43
9855;BME280;4966;48.112;9.282;2023-04-23T06:36:13;94180.75;;;13.24;85.67
9855;BME280;4966;48.112;9.282;2023-04-23T06:38:39;94184.19;;;13.21;84.87
9855;BME280;4966;48.112;9.282;2023-04-23T06:41:08;94186.38;;;13.12;84.39
9855;BME280;4966;48.112;9.282;2023-04-23T06:43:36;94185.06;;;13.02;85.05
9855;BME280;4966;48.112;9.282;2023-04-23T06:46:02;94176.19;;;13.09;85.75
9855;BME280;4966;48.112;9.282;2023-04-23T06:48:30;94180.53;;;12.87;86.38
9855;BME280;4966;48.112;9.282;2023-04-23T06:50:57;94188.22;;;13.04;84.88
9855;BME280;4966;48.112;9.282;2023-04-23T06:53:30;94179.22;;;13.27;84.51
9855;BME280;4966;48.112;9.282;2023-04-23T06:55:59;94172.84;;;13.19;83.29
9855;BME280;4966;48.112;9.282;2023-04-23T06:58:33;94178.47;;;13.03;85.62
9855;BME280;4966;48.112;9.282;2023-04-23T07:00:59;94175.06;;;13.10;84.39
9855;BME280;4966;48.112;9.282;2023-04-23T07:03:38;94177.25;;;13.01;85.52
9855;BME280;4966;48.112;9.282;2023-04-23T07:06:06;94176.25;;;13.12;83.08
9855;BME280;4966;48.112;9.282;2023-04-23T07:08:34;94175.06;;;12.87;84.59
9855;BME280;4966;48.112;9.282;2023-04-23T07:11:00;94173.78;;;12.81;86.82
9855;BME280;4966;48.112;9.282;2023-04-23T07:13:34;94157.03;;;13.05;86.12
9855;BME280;4966;48.112;9.282;2023-04-23T07:16:00;94152.06;;;13.37;84.52
9855;BME280;4966;48.112;9.282;2023-04-23T07:18:26;94153.69;;;13.42;83.79
9855;BME280;4966;48.112;9.282;2023-04-23T07:20:55;94159.78;;;12.82;84.00
9855;BME280;4966;48.112;9.282;2023-04-23T07:23:21;94155.28;;;12.70;84.71
9855;BME280;4966;48.112;9.282;2023-04-23T07:25:52;94160.44;;;12.75;85.34
9855;BME280;4966;48.112;9.282;2023-04-23T07:28:21;94159.28;;;12.53;86.57
9855;BME280;4966;48.112;9.282;2023-04-23T07:30:50;94163.16;;;12.75;85.70
9855;BME280;4966;48.112;9.282;2023-04-23T07:33:16;94149.84;;;12.93;84.90
9855;BME280;4966;48.112;9.282;2023-04-23T07:35:44;94158.19;;;12.58;86.90
9855;BME280;4966;48.112;9.282;2023-04-23T07:38:10;94162.06;;;12.80;85.12
9855;BME280;4966;48.112;9.282;2023-04-23T07:40:41;94168.88;;;12.67;86.02
9855;BME280;4966;48.112;9.282;2023-04-23T07:43:10;94158.34;;;12.88;83.67
9855;BME280;4966;48.112;9.282;2023-04-23T07:45:39;94150.16;;;13.15;82.71
9855;BME280;4966;48.112;9.282;2023-04-23T07:48:16;94157.94;;;13.13;82.59
9855;BME280;4966;48.112;9.282;2023-04-23T07:50:45;94146.59;;;13.11;85.17
9855;BME280;4966;48.112;9.282;2023-04-23T07:53:13;94159.88;;;13.12;81.72
9855;BME280;4966;48.112;9.282;2023-04-23T07:55:44;94155.22;;;13.39;82.17
9855;BME280;4966;48.112;9.282;2023-04-23T07:58:12;94150.28;;;13.49;79.80
9855;BME280;4966;48.112;9.282;2023-04-23T08:00:47;94144.09;;;13.82;78.31
9855;BME280;4966;48.112;9.282;2023-04-23T08:03:18;94144.97;;;13.59;77.58
9855;BME280;4966;48.112;9.282;2023-04-23T08:05:49;94144.66;;;13.38;81.11
9855;BME280;4966;48.112;9.282;2023-04-23T08:08:18;94145.38;;;13.31;80.01
9855;BME280;4966;48.112;9.282;2023-04-23T08:10:47;94146.69;;;13.18;81.52
9855;BME280;4966;48.112;9.282;2023-04-23T08:13:16;94143.53;;;13.39;80.80
9855;BME280;4966;48.112;9.282;2023-04-23T08:15:44;94146.53;;;13.60;81.62
9855;BME280;4966;48.112;9.282;2023-04-23T08:18:15;94140.53;;;13.78;80.68
9855;BME280;4966;48.112;9.282;2023-04-23T08:20:44;94137.28;;;13.99;78.68
9855;BME280;4966;48.112;9.282;2023-04-23T08:23:14;94134.19;;;13.70;78.56
9855;BME280;4966;48.112;9.282;2023-04-23T08:25:40;94135.63;;;13.60;77.36
9855;BME280;4966;48.112;9.282;2023-04-23T08:28:08;94137.97;;;13.62;78.93
9855;BME280;4966;48.112;9.282;2023-04-23T08:30:34;94141.81;;;13.88;80.12
9855;BME280;4966;48.112;9.282;2023-04-23T08:33:05;94137.72;;;14.04;77.81
9855;BME280;4966;48.112;9.282;2023-04-23T08:35:31;94132.47;;;14.22;76.52
9855;BME280;4966;48.112;9.282;2023-04-23T08:37:57;94127.19;;;14.07;75.73
9855;BME280;4966;48.112;9.282;2023-04-23T08:40:22;94128.88;;;14.18;75.92
9855;BME280;4966;48.112;9.282;2023-04-23T08:42:49;94131.91;;;13.76;75.89
9855;BME280;4966;48.112;9.282;2023-04-23T08:45:17;94131.91;;;14.10;74.70
9855;BME280;4966;48.112;9.282;2023-04-23T08:47:46;94130.09;;;14.21;76.34
9855;BME280;4966;48.112;9.282;2023-04-23T08:50:17;94134.94;;;13.67;77.28
9855;BME280;4966;48.112;9.282;2023-04-23T08:52:53;94132.97;;;14.73;73.24
9855;BME280;4966;48.112;9.282;2023-04-23T08:55:20;94131.09;;;14.80;74.54
9855;BME280;4966;48.112;9.282;2023-04-23T08:57:46;94125.25;;;14.44;73.46
9855;BME280;4966;48.112;9.282;2023-04-23T09:00:16;94133.84;;;14.84;71.44
9855;BME280;4966;48.112;9.282;2023-04-23T09:02:43;94128.38;;;14.84;71.26
9855;BME280;4966;48.112;9.282;2023-04-23T09:05:09;94127.59;;;14.83;71.64
9855;BME280;4966;48.112;9.282;2023-04-23T09:07:42;94123.72;;;14.51;72.41
9855;BME280;4966;48.112;9.282;2023-04-23T09:10:08;94117.22;;;14.59;71.89
9855;BME280;4966;48.112;9.282;2023-04-23T09:12:40;94119.97;;;15.10;68.87
9855;BME280;4966;48.112;9.282;2023-04-23T09:15:12;94123.78;;;14.99;69.58
9855;BME280;4966;48.112;9.282;2023-04-23T09:17:40;94115.78;;;15.27;68.40
9855;BME280;4966;48.112;9.282;2023-04-23T09:20:09;94108.56;;;15.64;67.29
9855;BME280;4966;48.112;9.282;2023-04-23T09:22:48;94109.09;;;15.21;69.88
9855;BME280;4966;48.112;9.282;2023-04-23T09:25:21;94094.06;;;15.63;67.95
9855;BME280;4966;48.112;9.282;2023-04-23T09:27:51;94091.28;;;15.56;66.43
9855;BME280;4966;48.112;9.282;2023-04-23T09:30:20;94085.69;;;16.19;63.41
9855;BME280;4966;48.112;9.282;2023-04-23T09:32:46;94094.31;;;16.24;62.57
9855;BME280;4966;48.112;9.282;2023-04-23T09:35:14;94086.44;;;16.05;63.96
9855;BME280;4966;48.112;9.282;2023-04-23T09:37:44;94079.28;;;15.82;63.68
9855;BME280;4966;48.112;9.282;2023-04-23T09:40:19;94083.38;;;16.46;61.55
9855;BME280;4966;48.112;9.282;2023-04-23T09:42:51;94082.22;;;16.43;59.89
9855;BME280;4966;48.112;9.282;2023-04-23T09:45:19;94078.72;;;16.71;58.26
9855;BME280;4966;48.112;9.282;2023-04-23T09:47:53;94073.97;;;16.68;59.89
9855;BME280;4966;48.112;9.282;2023-04-23T09:50:34;94070.06;;;16.51;58.73
9855;BME280;4966;48.112;9.282;2023-04-23T09:53:05;94070.47;;;16.68;55.78
9855;BME280;4966;48.112;9.282;2023-04-23T09:55:32;94074.75;;;16.76;58.54
9855;BME280;4966;48.112;9.282;2023-04-23T09:58:16;94072.41;;;16.78;57.28
9855;BME280;4966;48.112;9.282;2023-04-23T10:00:48;94065.28;;;17.52;55.39
9855;BME280;4966;48.112;9.282;2023-04-23T10:03:14;94065.31;;;17.38;56.26
9855;BME280;4966;48.112;9.282;2023-04-23T10:05:44;94064.53;;;17.48;55.78
9855;BME280;4966;48.112;9.282;2023-04-23T10:08:11;94056.72;;;17.25;54.54
9855;BME280;4966;48.112;9.282;2023-04-23T10:10:44;94049.63;;;17.35;56.12
9855;BME280;4966;48.112;9.282;2023-04-23T10:13:14;94049.53;;;18.48;54.26
9855;BME280;4966;48.112;9.282;2023-04-23T10:15:41;94049.72;;;18.16;54.72
9855;BME280;4966;48.112;9.282;2023-04-23T10:18:06;94040.41;;;17.92;55.00
9855;BME280;4966;48.112;9.282;2023-04-23T10:20:35;94034.19;;;17.70;54.89
9855;BME280;4966;48.112;9.282;2023-04-23T10:23:07;94036.53;;;17.82;54.43
9855;BME280;4966;48.112;9.282;2023-04-23T10:25:38;94023.91;;;18.58;53.19
9855;BME280;4966;48.112;9.282;2023-04-23T10:28:08;94033.13;;;18.26;51.32
9855;BME280;4966;48.112;9.282;2023-04-23T10:30:36;94025.91;;;18.50;53.78
9855;BME280;4966;48.112;9.282;2023-04-23T10:33:03;94022.28;;;19.13;51.04
9855;BME280;4966;48.112;9.282;2023-04-23T10:35:33;94022.84;;;19.31;50.46
9855;BME280;4966;48.112;9.282;2023-04-23T10:38:02;94022.47;;;19.33;49.74
9855;BME280;4966;48.112;9.282;2023-04-23T10:40:31;94012.50;;;20.11;48.99
9855;BME280;4966;48.112;9.282;2023-04-23T10:42:58;94012.41;;;19.12;49.84
9855;BME280;4966;48.112;9.282;2023-04-23T10:45:29;94007.72;;;18.64;51.69
9855;BME280;4966;48.112;9.282;2023-04-23T10:48:01;94006.88;;;18.70;50.21
9855;BME280;4966;48.112;9.282;2023-04-23T10:50:34;94012.75;;;19.18;49.83
9855;BME280;4966;48.112;9.282;2023-04-23T10:53:01;93999.81;;;19.49;50.39
9855;BME280;4966;48.112;9.282;2023-04-23T10:55:34;94000.28;;;20.36;48.20
9855;BME280;4966;48.112;9.282;2023-04-23T10:58:03;94000.63;;;19.84;49.09
9855;BME280;4966;48.112;9.282;2023-04-23T11:00:43;93992.94;;;19.64;49.21
9855;BME280;4966;48.112;9.282;2023-04-23T11:03:38;93990.34;;;19.50;47.88
9855;BME280;4966;48.112;9.282;2023-04-23T11:06:07;93986.56;;;19.37;52.09
9855;BME280;4966;48.112;9.282;2023-04-23T11:08:36;93981.03;;;20.83;48.91
9855;BME280;4966;48.112;9.282;2023-04-23T11:11:08;93983.59;;;20.70;47.64
9855;BME280;4966;48.112;9.282;2023-04-23T11:13:57;93982.69;;;19.68;47.38
9855;BME280;4966;48.112;9.282;2023-04-23T11:16:23;93976.78;;;19.97;48.44
9855;BME280;4966;48.112;9.282;2023-04-23T11:19:02;93978.03;;;20.19;47.86
9855;BME280;4966;48.112;9.282;2023-04-23T11:24:36;93978.97;;;20.09;46.27
9855;BME280;4966;48.112;9.282;2023-04-23T11:27:09;93971.63;;;19.34;48.38
9855;BME280;4966;48.112;9.282;2023-04-23T11:29:39;93962.22;;;20.98;44.90
9855;BME280;4966;48.112;9.282;2023-04-23T11:32:06;93961.72;;;21.47;42.80
9855;BME280;4966;48.112;9.282;2023-04-23T11:34:39;93966.84;;;20.03;45.84
9855;BME280;4966;48.112;9.282;2023-04-23T11:37:16;93953.75;;;20.62;45.25
9855;BME280;4966;48.112;9.282;2023-04-23T11:39:43;93952.84;;;21.12;45.07
9855;BME280;4966;48.112;9.282;2023-04-23T11:42:13;93947.63;;;20.47;45.22
9855;BME280;4966;48.112;9.282;2023-04-23T11:44:42;93947.78;;;21.30;43.40
9855;BME280;4966;48.112;9.282;2023-04-23T11:47:09;93927.56;;;21.73;42.62
9855;BME280;4966;48.112;9.282;2023-04-23T11:49:36;93938.28;;;22.27;42.06
9855;BME280;4966;48.112;9.282;2023-04-23T11:52:05;93930.47;;;23.33;38.22
9855;BME280;4966;48.112;9.282;2023-04-23T11:54:38;93926.50;;;23.76;38.45
9855;BME280;4966;48.112;9.282;2023-04-23T11:57:04;93926.00;;;23.94;38.13
9855;BME280;4966;48.112;9.282;2023-04-23T11:59:33;93921.56;;;25.21;34.60
9855;BME280;4966;48.112;9.282;2023-04-23T12:02:02;93907.13;;;26.42;34.19
9855;BME280;4966;48.112;9.282;2023-04-23T12:04:30;93909.72;;;26.68;32.79
9855;BME280;4966;48.112;9.282;2023-04-23T12:06:58;93902.94;;;26.97;31.56
9855;BME280;4966;48.112;9.282;2023-04-23T12:09:26;93889.63;;;27.28;30.75
9855;BME280;4966;48.112;9.282;2023-04-23T12:11:53;93893.97;;;28.70;29.65
9855;BME280;4966;48.112;9.282;2023-04-23T12:14:24;93891.84;;;28.13;30.68
9855;BME280;4966;48.112;9.282;2023-04-23T12:16:54;93896.59;;;27.88;29.95
9855;BME280;4966;48.112;9.282;2023-04-23T12:19:32;93886.34;;;29.18;29.11
9855;BME280;4966;48.112;9.282;2023-04-23T12:22:04;93892.47;;;29.32;28.00
9855;BME280;4966;48.112;9.282;2023-04-23T12:24:45;93891.25;;;28.09;27.61
9855;BME280;4966;48.112;9.282;2023-04-23T12:27:14;93881.13;;;29.50;26.30
9855;BME280;4966;48.112;9.282;2023-04-23T12:29:40;93872.25;;;28.22;27.43
9855;BME280;4966;48.112;9.282;2023-04-23T12:32:13;93869.44;;;26.97;28.26
9855;BME280;4966;48.112;9.282;2023-04-23T12:34:56;93874.91;;;27.37;28.73
9855;BME280;4966;48.112;9.282;2023-04-23T12:37:28;93874.66;;;28.72;27.88
9855;BME280;4966;48.112;9.282;2023-04-23T12:39:55;93871.72;;;27.81;28.43
9855;BME280;4966;48.112;9.282;2023-04-23T12:42:29;93867.44;;;28.56;28.36
9855;BME280;4966;48.112;9.282;2023-04-23T12:45:04;93865.72;;;27.36;29.83
9855;BME280;4966;48.112;9.282;2023-04-23T12:47:33;93858.72;;;26.67;30.64
9855;BME280;4966;48.112;9.282;2023-04-23T12:50:01;93867.50;;;25.85;31.22
9855;BME280;4966;48.112;9.282;2023-04-23T12:52:29;93859.16;;;25.85;30.29
9855;BME280;4966;48.112;9.282;2023-04-23T12:55:04;93856.44;;;27.49;27.98
9855;BME280;4966;48.112;9.282;2023-04-23T12:57:33;93844.19;;;28.07;27.71
9855;BME280;4966;48.112;9.282;2023-04-23T13:00:09;93845.41;;;28.73;26.57
9855;BME280;4966;48.112;9.282;2023-04-23T13:02:38;93840.53;;;29.07;28.07
9855;BME280;4966;48.112;9.282;2023-04-23T13:05:04;93833.47;;;28.06;26.69
9855;BME280;4966;48.112;9.282;2023-04-23T13:07:34;93831.47;;;26.22;28.33
9855;BME280;4966;48.112;9.282;2023-04-23T13:10:02;93827.09;;;23.84;32.39
9855;BME280;4966;48.112;9.282;2023-04-23T13:12:28;93825.34;;;25.20;30.79
9855;BME280;4966;48.112;9.282;2023-04-23T13:14:58;93819.97;;;27.15;29.93
9855;BME280;4966;48.112;9.282;2023-04-23T13:17:24;93813.94;;;26.80;28.41
9855;BME280;4966;48.112;9.282;2023-04-23T13:19:53;93805.06;;;29.03;26.16
9855;BME280;4966;48.112;9.282;2023-04-23T13:22:20;93801.59;;;28.12;25.94
9855;BME280;4966;48.112;9.282;2023-04-23T13:24:56;93804.00;;;27.95;26.87
9855;BME280;4966;48.112;9.282;2023-04-23T13:27:27;93801.94;;;29.25;24.23
9855;BME280;4966;48.112;9.282;2023-04-23T13:29:53;93798.63;;;27.73;26.14
9855;BME280;4966;48.112;9.282;2023-04-23T13:32:23;93799.97;;;27.35;26.81
9855;BME280;4966;48.112;9.282;2023-04-23T13:34:51;93793.06;;;28.88;25.13
9855;BME280;4966;48.112;9.282;2023-04-23T13:37:16;93795.25;;;27.60;25.98